Time;durP1;ratioP1;P1;durP2;ratioP2;P2;SDS_P1;SDS_P2;PMS_P1;PMS_P2;Temp;Humidity;BMP_temperature;BMP_pressure;BME280_temperature;BME280_humidity;BME280_pressure;Samples;Min_cycle;Max_cycle;Signal;HPM_P1;HPM_P2
2021/09/07 00:00:29;;;;;;;;;;;;;;;22.37;48.10;101970.78;4970827;28;97163;-73
2021/09/07 00:02:56;;;;;;;;;;;;;;;22.57;47.61;101971.22;4968247;28;97890;-72
2021/09/07 00:05:22;;;;;;;;;;;;;;;22.50;47.75;101966.31;4972721;28;99006;-72
2021/09/07 00:07:48;;;;;;;;;;;;;;;22.53;47.70;101955.34;4972548;28;98890;-72
2021/09/07 00:10:15;;;;;;;;;;;;;;;22.69;47.36;101963.28;4970713;28;97101;-72
2021/09/07 00:12:42;;;;;;;;;;;;;;;22.22;48.45;101956.50;4971391;28;97208;-72
2021/09/07 00:15:09;;;;;;;;;;;;;;;22.14;48.80;101948.06;4973508;28;98922;-72
2021/09/07 00:17:37;;;;;;;;;;;;;;;22.33;48.65;101947.72;4971014;28;98495;-72
2021/09/07 00:20:04;;;;;;;;;;;;;;;22.50;48.09;101952.88;4971131;28;98510;-72
2021/09/07 00:22:31;;;;;;;;;;;;;;;22.56;47.83;101949.75;4971647;28;96857;-72
2021/09/07 00:24:57;;;;;;;;;;;;;;;22.56;47.87;101952.44;4971965;28;98981;-73
2021/09/07 00:27:23;;;;;;;;;;;;;;;22.52;47.94;101949.09;4970659;28;99473;-73
2021/09/07 00:29:50;;;;;;;;;;;;;;;22.59;47.70;101953.09;4971352;28;96894;-72
2021/09/07 00:32:16;;;;;;;;;;;;;;;22.66;47.70;101945.47;4971045;28;97749;-73
2021/09/07 00:34:43;;;;;;;;;;;;;;;22.43;48.08;101946.16;4971875;28;99290;-72
2021/09/07 00:37:10;;;;;;;;;;;;;;;22.44;48.19;101937.97;4968907;28;99150;-72
2021/09/07 00:39:36;;;;;;;;;;;;;;;21.98;49.66;101941.94;4971033;28;98605;-73
2021/09/07 00:42:03;;;;;;;;;;;;;;;22.30;48.59;101948.78;4972120;28;96830;-73
2021/09/07 00:44:29;;;;;;;;;;;;;;;22.19;48.97;101945.91;4971915;28;99023;-72
2021/09/07 00:46:56;;;;;;;;;;;;;;;22.24;48.86;101939.28;4971198;28;99089;-73
2021/09/07 00:49:23;;;;;;;;;;;;;;;22.22;48.81;101934.97;4972348;28;97074;-73
2021/09/07 00:51:51;;;;;;;;;;;;;;;22.29;48.79;101936.28;4968849;28;97009;-73
2021/09/07 00:54:19;;;;;;;;;;;;;;;22.02;49.42;101938.09;4973523;28;99048;-71
2021/09/07 00:56:46;;;;;;;;;;;;;;;22.24;48.88;101933.03;4970314;28;99070;-72
2021/09/07 00:59:12;;;;;;;;;;;;;;;22.34;48.58;101928.75;4970611;28;96806;-73
2021/09/07 01:01:39;;;;;;;;;;;;;;;22.01;49.53;101928.28;4970878;28;97213;-73
2021/09/07 01:04:05;;;;;;;;;;;;;;;22.13;49.35;101928.34;4970081;28;99016;-72
2021/09/07 01:06:32;;;;;;;;;;;;;;;22.24;49.06;101923.13;4972204;28;98864;-73
2021/09/07 01:09:00;;;;;;;;;;;;;;;22.37;48.58;101923.19;4970738;28;96857;-72
2021/09/07 01:11:26;;;;;;;;;;;;;;;22.49;48.33;101933.16;4971348;28;97475;-73
2021/09/07 01:13:52;;;;;;;;;;;;;;;21.93;49.64;101931.44;4970022;28;99292;-72
2021/09/07 01:16:19;;;;;;;;;;;;;;;21.86;49.80;101925.56;4971657;28;98795;-72
2021/09/07 01:18:45;;;;;;;;;;;;;;;22.02;49.51;101928.19;4974302;28;96914;-72
2021/09/07 01:21:11;;;;;;;;;;;;;;;21.87;49.96;101931.81;4972632;28;97259;-72
2021/09/07 01:23:38;;;;;;;;;;;;;;;21.99;49.52;101938.31;4969931;28;98823;-71
2021/09/07 01:26:06;;;;;;;;;;;;;;;21.77;50.29;101933.38;4969157;28;99051;-71
2021/09/07 01:28:33;;;;;;;;;;;;;;;21.95;49.70;101928.66;4973876;28;96773;-72
2021/09/07 01:30:59;;;;;;;;;;;;;;;21.88;49.94;101934.41;4974955;28;98451;-70
2021/09/07 01:33:25;;;;;;;;;;;;;;;21.84;50.18;101927.53;4970406;28;99104;-72
2021/09/07 01:35:55;;;;;;;;;;;;;;;21.85;50.16;101931.94;4967834;28;98841;-72
2021/09/07 01:38:21;;;;;;;;;;;;;;;21.77;50.38;101931.56;4970303;28;97277;-72
2021/09/07 01:40:47;;;;;;;;;;;;;;;21.64;50.81;101932.44;4970487;28;97039;-73
2021/09/07 01:43:15;;;;;;;;;;;;;;;21.74;50.55;101938.94;4967867;28;97699;-72
2021/09/07 01:45:41;;;;;;;;;;;;;;;21.80;50.61;101939.41;4971106;28;99089;-72
2021/09/07 01:48:08;;;;;;;;;;;;;;;21.92;50.31;101945.88;4967497;28;97328;-72
2021/09/07 01:50:34;;;;;;;;;;;;;;;21.83;50.66;101947.31;4976301;28;97305;-73
2021/09/07 01:53:00;;;;;;;;;;;;;;;21.97;50.01;101940.22;4971283;28;99148;-72
2021/09/07 01:55:26;;;;;;;;;;;;;;;21.93;50.40;101944.88;4973363;28;99099;-73
2021/09/07 01:57:53;;;;;;;;;;;;;;;21.90;50.36;101939.72;4973374;28;97067;-71
2021/09/07 02:00:20;;;;;;;;;;;;;;;21.57;51.25;101945.41;4973213;28;96924;-71
2021/09/07 02:02:46;;;;;;;;;;;;;;;21.44;51.94;101945.31;4971087;28;98826;-73
2021/09/07 02:05:13;;;;;;;;;;;;;;;21.35;52.29;101951.22;4968749;28;97712;-73
2021/09/07 02:07:39;;;;;;;;;;;;;;;21.46;52.15;101945.22;4974186;28;96953;-72
2021/09/07 02:10:09;;;;;;;;;;;;;;;21.46;51.90;101950.59;4974665;28;96878;-72
2021/09/07 02:12:35;;;;;;;;;;;;;;;21.21;52.55;101955.72;4972585;28;99281;-72
2021/09/07 02:15:02;;;;;;;;;;;;;;;21.01;53.48;101948.81;4976980;28;98596;-71
2021/09/07 02:17:29;;;;;;;;;;;;;;;21.31;52.62;101948.84;4957407;28;97374;-72
2021/09/07 02:19:56;;;;;;;;;;;;;;;21.35;52.38;101943.16;4974547;28;96936;-72
2021/09/07 02:22:22;;;;;;;;;;;;;;;21.33;52.46;101944.25;4973445;28;97851;-72
2021/09/07 02:24:49;;;;;;;;;;;;;;;21.19;52.80;101945.09;4972828;28;99804;-73
2021/09/07 02:27:15;;;;;;;;;;;;;;;21.26;52.68;101945.56;4972970;28;96824;-72
2021/09/07 02:29:41;;;;;;;;;;;;;;;21.01;53.31;101938.94;4976159;28;97435;-73
2021/09/07 02:32:08;;;;;;;;;;;;;;;21.12;53.81;101938.31;4971156;28;99032;-73
2021/09/07 02:34:36;;;;;;;;;;;;;;;21.33;52.60;101939.69;4972076;28;98878;-73
2021/09/07 02:37:02;;;;;;;;;;;;;;;21.32;52.52;101940.69;4967518;28;97908;-73
2021/09/07 02:39:28;;;;;;;;;;;;;;;21.47;52.11;101944.22;4975121;28;96959;-71
2021/09/07 02:41:55;;;;;;;;;;;;;;;21.33;53.05;101941.56;4972835;28;98918;-72
2021/09/07 02:44:21;;;;;;;;;;;;;;;21.23;52.77;101940.38;4975951;28;99263;-71
2021/09/07 02:46:47;;;;;;;;;;;;;;;21.35;52.72;101942.31;4971192;28;98573;-73
2021/09/07 02:49:14;;;;;;;;;;;;;;;21.49;52.88;101945.00;4975172;28;96703;-72
2021/09/07 02:51:43;;;;;;;;;;;;;;;21.50;52.67;101935.13;4970396;28;99077;-73
2021/09/07 02:54:09;;;;;;;;;;;;;;;21.44;52.68;101933.69;4974121;28;98964;-73
2021/09/07 02:56:35;;;;;;;;;;;;;;;21.34;52.44;101940.56;4972727;28;97287;-73
2021/09/07 02:59:02;;;;;;;;;;;;;;;21.19;52.72;101946.91;4974001;28;99025;-71
2021/09/07 03:01:28;;;;;;;;;;;;;;;21.29;52.67;101940.88;4970801;28;99130;-71
2021/09/07 03:03:55;;;;;;;;;;;;;;;21.36;52.38;101949.41;4970896;28;99420;-71
2021/09/07 03:06:21;;;;;;;;;;;;;;;21.26;52.78;101941.06;4971842;28;96908;-72
2021/09/07 03:08:48;;;;;;;;;;;;;;;21.26;52.46;101937.50;4974652;28;96993;-72
2021/09/07 03:11:15;;;;;;;;;;;;;;;21.13;53.62;101931.13;4972144;28;98928;-72
2021/09/07 03:13:41;;;;;;;;;;;;;;;21.04;53.65;101927.16;4973987;28;98159;-71
2021/09/07 03:16:07;;;;;;;;;;;;;;;21.03;53.68;101928.13;4973946;28;97385;-71
2021/09/07 03:18:33;;;;;;;;;;;;;;;20.84;54.32;101930.19;4973552;28;97022;-71
2021/09/07 03:21:00;;;;;;;;;;;;;;;20.68;54.66;101935.59;4972998;28;99180;-71
2021/09/07 03:23:26;;;;;;;;;;;;;;;20.82;54.23;101929.41;4971171;28;99186;-73
2021/09/07 03:25:54;;;;;;;;;;;;;;;20.69;55.19;101931.94;4973162;28;96938;-71
2021/09/07 03:28:20;;;;;;;;;;;;;;;20.62;54.51;101926.06;4973643;28;98089;-72
2021/09/07 03:30:46;;;;;;;;;;;;;;;20.46;55.54;101933.31;4972632;28;98934;-72
2021/09/07 03:33:13;;;;;;;;;;;;;;;20.63;55.18;101938.53;4969683;28;98841;-72
2021/09/07 03:35:39;;;;;;;;;;;;;;;20.57;55.04;101936.22;4975489;28;98637;-72
2021/09/07 03:38:05;;;;;;;;;;;;;;;20.29;55.74;101942.28;4972948;28;97100;-71
2021/09/07 03:40:32;;;;;;;;;;;;;;;20.29;56.19;101942.28;4973080;28;101566;-71
2021/09/07 03:42:59;;;;;;;;;;;;;;;20.39;55.83;101933.75;4974111;28;99433;-72
2021/09/07 03:45:26;;;;;;;;;;;;;;;20.58;55.01;101939.78;4974085;28;96855;-72
2021/09/07 03:47:52;;;;;;;;;;;;;;;20.43;55.49;101940.66;4971800;28;96937;-72
2021/09/07 03:50:18;;;;;;;;;;;;;;;20.46;55.65;101941.38;4955000;28;99310;-72
2021/09/07 03:52:45;;;;;;;;;;;;;;;20.46;55.48;101945.88;4971787;28;98884;-72
2021/09/07 03:55:12;;;;;;;;;;;;;;;20.54;55.48;101947.16;4971636;28;96950;-72
2021/09/07 03:57:38;;;;;;;;;;;;;;;20.54;55.28;101960.59;4971976;28;97729;-72
2021/09/07 04:00:07;;;;;;;;;;;;;;;20.46;55.67;101959.28;4971839;28;99083;-72
2021/09/07 04:02:34;;;;;;;;;;;;;;;20.41;55.89;101958.69;4970004;28;98848;-72
2021/09/07 04:05:00;;;;;;;;;;;;;;;20.36;56.10;101967.00;4970086;28;96952;-73
2021/09/07 04:07:26;;;;;;;;;;;;;;;20.47;55.82;101966.41;4971057;28;97428;-73
2021/09/07 04:09:52;;;;;;;;;;;;;;;20.43;55.91;101968.38;4972250;28;98997;-73
2021/09/07 04:12:19;;;;;;;;;;;;;;;20.12;56.84;101973.72;4971437;28;98846;-72
2021/09/07 04:14:45;;;;;;;;;;;;;;;20.06;56.60;101966.00;4973379;28;96849;-72
2021/09/07 04:17:12;;;;;;;;;;;;;;;20.23;56.15;101972.16;4972547;28;97449;-72
2021/09/07 04:19:39;;;;;;;;;;;;;;;20.28;56.60;101971.91;4972620;28;99257;-71
2021/09/07 04:22:05;;;;;;;;;;;;;;;20.38;55.85;101969.59;4971722;28;98801;-73
2021/09/07 04:24:31;;;;;;;;;;;;;;;20.23;56.33;101971.28;4972523;28;97014;-72
2021/09/07 04:26:58;;;;;;;;;;;;;;;20.29;56.38;101982.53;4970949;28;97695;-73
2021/09/07 04:29:24;;;;;;;;;;;;;;;20.43;55.74;101984.47;4972408;28;99511;-73
2021/09/07 04:31:50;;;;;;;;;;;;;;;20.13;56.66;101981.69;4967285;28;99174;-73
2021/09/07 04:34:18;;;;;;;;;;;;;;;20.05;56.93;101983.94;4972567;28;97013;-73
2021/09/07 04:36:44;;;;;;;;;;;;;;;20.20;56.45;101983.09;4971595;28;97047;-73
2021/09/07 04:39:11;;;;;;;;;;;;;;;20.00;56.73;101986.00;4972752;28;98066;-72
2021/09/07 04:41:37;;;;;;;;;;;;;;;20.18;56.77;101990.34;4970730;28;97937;-72
2021/09/07 04:44:03;;;;;;;;;;;;;;;20.37;55.85;101994.69;4971351;28;97315;-74
2021/09/07 04:46:30;;;;;;;;;;;;;;;20.12;56.66;101993.38;4971054;28;97537;-74
2021/09/07 04:48:56;;;;;;;;;;;;;;;20.25;56.54;101997.09;4971392;28;98932;-73
2021/09/07 04:51:24;;;;;;;;;;;;;;;20.34;56.28;102001.13;4970288;28;99014;-72
2021/09/07 04:53:51;;;;;;;;;;;;;;;20.10;56.95;101995.25;4968744;28;98335;-70
2021/09/07 04:56:18;;;;;;;;;;;;;;;20.12;57.24;102000.56;4971696;28;97054;-73
2021/09/07 04:58:45;;;;;;;;;;;;;;;20.34;56.35;102000.25;4972968;28;99086;-73
2021/09/07 05:01:11;;;;;;;;;;;;;;;20.59;55.72;102001.47;4968274;28;99215;-72
2021/09/07 05:03:37;;;;;;;;;;;;;;;20.81;54.90;101992.13;4967835;28;98802;-74
2021/09/07 05:06:04;;;;;;;;;;;;;;;20.94;54.39;102004.75;4968267;28;98629;-73
2021/09/07 05:08:32;;;;;;;;;;;;;;;20.96;54.23;101993.94;4971234;28;98949;-73
2021/09/07 05:10:58;;;;;;;;;;;;;;;20.89;54.50;102003.28;4968090;28;99265;-72
2021/09/07 05:13:25;;;;;;;;;;;;;;;21.01;53.85;101998.06;4970484;28;98134;-72
2021/09/07 05:15:51;;;;;;;;;;;;;;;21.00;54.09;102003.56;4970329;28;97687;-72
2021/09/07 05:18:17;;;;;;;;;;;;;;;20.93;54.28;102004.88;4971016;28;99350;-72
2021/09/07 05:20:44;;;;;;;;;;;;;;;20.92;54.30;102004.00;4968014;28;98887;-72
2021/09/07 05:23:10;;;;;;;;;;;;;;;20.98;54.08;102013.53;4964481;28;99369;-72
2021/09/07 05:25:37;;;;;;;;;;;;;;;21.08;53.45;102007.50;4973185;28;96979;-72
2021/09/07 05:28:04;;;;;;;;;;;;;;;21.27;53.08;102004.59;4974952;28;98878;-72
2021/09/07 05:30:30;;;;;;;;;;;;;;;21.40;52.67;102016.34;4969666;28;98739;-72
2021/09/07 05:32:57;;;;;;;;;;;;;;;21.35;52.92;102012.19;4972567;28;98107;-71
2021/09/07 05:35:23;;;;;;;;;;;;;;;21.46;52.70;102017.81;4975341;28;97318;-71
2021/09/07 05:37:49;;;;;;;;;;;;;;;21.15;53.48;102015.19;4972164;28;99063;-72
2021/09/07 05:40:16;;;;;;;;;;;;;;;20.65;54.93;102022.59;4974350;28;98071;-73
2021/09/07 05:42:44;;;;;;;;;;;;;;;21.16;53.52;102019.66;4973826;28;96870;-71
2021/09/07 05:45:11;;;;;;;;;;;;;;;21.03;53.76;102017.66;4980811;28;96848;-72
2021/09/07 05:47:37;;;;;;;;;;;;;;;21.06;53.63;102020.19;4969737;28;100070;-72
2021/09/07 05:50:04;;;;;;;;;;;;;;;21.36;52.85;102019.31;4970190;28;98784;-71
2021/09/07 05:52:31;;;;;;;;;;;;;;;21.43;52.81;102031.44;4973793;28;97217;-72
2021/09/07 05:54:57;;;;;;;;;;;;;;;21.20;53.51;102026.59;4965684;28;96965;-71
2021/09/07 05:57:23;;;;;;;;;;;;;;;21.67;52.26;102026.38;4971183;28;99317;-71
2021/09/07 05:59:54;;;;;;;;;;;;;;;22.22;50.41;102029.19;4968000;28;98784;-72
2021/09/07 06:02:20;;;;;;;;;;;;;;;22.29;50.17;102032.34;4970538;28;97612;-74
2021/09/07 06:04:46;;;;;;;;;;;;;;;22.44;49.37;102026.84;4971626;28;96832;-71
2021/09/07 06:07:13;;;;;;;;;;;;;;;22.51;49.41;102033.53;4968890;28;98273;-72
2021/09/07 06:09:39;;;;;;;;;;;;;;;22.44;49.40;102034.94;4968529;28;98848;-72
2021/09/07 06:12:06;;;;;;;;;;;;;;;22.57;49.20;102043.94;4972294;28;97339;-71
2021/09/07 06:14:33;;;;;;;;;;;;;;;22.37;49.56;102041.69;4964682;28;98104;-71
2021/09/07 06:17:01;;;;;;;;;;;;;;;22.51;49.36;102038.09;4969050;28;98968;-72
2021/09/07 06:19:27;;;;;;;;;;;;;;;22.43;49.38;102037.72;4968992;28;98912;-72
2021/09/07 06:21:53;;;;;;;;;;;;;;;22.52;49.32;102035.28;4968056;28;97938;-73
2021/09/07 06:24:20;;;;;;;;;;;;;;;22.52;48.96;102040.66;4974614;28;97172;-72
2021/09/07 06:26:46;;;;;;;;;;;;;;;22.50;49.31;102045.31;4969330;28;98226;-71
2021/09/07 06:29:12;;;;;;;;;;;;;;;22.43;49.28;102041.28;4972638;28;99234;-71
2021/09/07 06:31:38;;;;;;;;;;;;;;;22.15;50.15;102034.09;4966210;28;98357;-72
2021/09/07 06:34:06;;;;;;;;;;;;;;;22.08;50.50;102043.53;4973806;28;96933;-72
2021/09/07 06:36:32;;;;;;;;;;;;;;;21.95;50.82;102044.34;4971702;28;98894;-71
2021/09/07 06:38:59;;;;;;;;;;;;;;;21.99;50.73;102045.94;4974721;28;98829;-72
2021/09/07 06:41:25;;;;;;;;;;;;;;;22.03;51.01;102047.47;4968930;28;97180;-72
2021/09/07 06:43:51;;;;;;;;;;;;;;;22.11;50.54;102051.41;4975290;28;97121;-73
2021/09/07 06:46:17;;;;;;;;;;;;;;;22.18;50.39;102055.47;4971187;28;99300;-72
2021/09/07 06:48:44;;;;;;;;;;;;;;;22.44;49.87;102047.53;4973901;28;98880;-73
2021/09/07 06:51:12;;;;;;;;;;;;;;;23.32;47.77;102044.31;4965217;28;97873;-72
2021/09/07 06:53:38;;;;;;;;;;;;;;;23.42;46.94;102049.00;4970178;28;98307;-72
2021/09/07 06:56:04;;;;;;;;;;;;;;;23.16;47.39;102046.34;4965306;28;98984;-72
2021/09/07 06:58:31;;;;;;;;;;;;;;;23.15;47.50;102048.19;4968600;28;99560;-72
2021/09/07 07:00:57;;;;;;;;;;;;;;;23.03;48.11;102046.31;4968845;28;97001;-72
2021/09/07 07:03:23;;;;;;;;;;;;;;;22.67;48.53;102054.97;4968769;28;97329;-72
2021/09/07 07:05:50;;;;;;;;;;;;;;;22.51;49.32;102057.78;4972022;28;98941;-72
2021/09/07 07:08:17;;;;;;;;;;;;;;;22.92;48.54;102057.78;4970182;28;98946;-72
2021/09/07 07:10:44;;;;;;;;;;;;;;;23.31;47.49;102056.94;4970124;28;97702;-71
2021/09/07 07:13:10;;;;;;;;;;;;;;;22.10;50.44;102056.91;4972062;28;97049;-71
2021/09/07 07:15:36;;;;;;;;;;;;;;;22.54;49.50;102057.59;4971989;28;98963;-71
2021/09/07 07:18:02;;;;;;;;;;;;;;;23.25;47.51;102051.09;4968131;28;98906;-70
2021/09/07 07:20:30;;;;;;;;;;;;;;;23.21;48.12;102054.97;4968978;28;97038;-71
2021/09/07 07:22:57;;;;;;;;;;;;;;;23.71;46.55;102048.81;4969860;28;97744;-72
2021/09/07 07:25:24;;;;;;;;;;;;;;;23.75;46.32;102058.44;4969202;28;99469;-71
2021/09/07 07:27:53;;;;;;;;;;;;;;;23.58;46.30;102054.22;4972560;28;97745;-71
2021/09/07 07:30:20;;;;;;;;;;;;;;;23.72;46.10;102053.25;4968594;28;96900;-71
2021/09/07 07:32:46;;;;;;;;;;;;;;;23.70;46.42;102057.88;4970903;28;96981;-71
2021/09/07 07:35:12;;;;;;;;;;;;;;;23.65;46.16;102057.34;4971233;28;98874;-72
2021/09/07 07:37:39;;;;;;;;;;;;;;;23.65;46.27;102051.94;4968617;28;98713;-71
2021/09/07 07:40:06;;;;;;;;;;;;;;;23.72;46.08;102053.25;4963307;28;98703;-73
2021/09/07 07:42:34;;;;;;;;;;;;;;;24.15;44.87;102060.06;4972353;28;97065;-72
2021/09/07 07:45:00;;;;;;;;;;;;;;;24.27;44.76;102063.72;4965878;28;98932;-72
2021/09/07 07:47:26;;;;;;;;;;;;;;;23.83;45.95;102067.72;4964048;28;98981;-73
2021/09/07 07:49:52;;;;;;;;;;;;;;;24.23;44.54;102071.16;4964240;28;97787;-73
2021/09/07 07:52:19;;;;;;;;;;;;;;;24.86;42.86;102071.97;4966020;28;97215;-73
2021/09/07 07:54:46;;;;;;;;;;;;;;;24.49;43.87;102071.13;4970871;28;99130;-74
2021/09/07 07:57:12;;;;;;;;;;;;;;;24.68;43.07;102070.66;4971178;28;99162;-73
2021/09/07 07:59:40;;;;;;;;;;;;;;;25.40;42.02;102069.69;4969088;28;96904;-72
2021/09/07 08:02:06;;;;;;;;;;;;;;;25.46;42.07;102073.75;4965989;28;97479;-73
2021/09/07 08:04:32;;;;;;;;;;;;;;;25.58;40.80;102071.00;4962323;28;99315;-72
2021/09/07 08:06:59;;;;;;;;;;;;;;;25.04;41.54;102072.47;4966715;28;99033;-73
2021/09/07 08:09:25;;;;;;;;;;;;;;;24.97;41.62;102083.75;4965374;28;98140;-73
2021/09/07 08:11:52;;;;;;;;;;;;;;;24.87;41.14;102079.97;4966835;28;100824;-73
2021/09/07 08:14:18;;;;;;;;;;;;;;;25.45;40.39;102083.72;4968152;28;98952;-73
2021/09/07 08:16:45;;;;;;;;;;;;;;;25.11;40.49;102080.00;4962787;28;98891;-73
2021/09/07 08:19:12;;;;;;;;;;;;;;;25.42;40.19;102075.81;4969857;28;97633;-75
2021/09/07 08:21:38;;;;;;;;;;;;;;;25.44;40.22;102078.41;4970858;28;97013;-75
2021/09/07 08:24:05;;;;;;;;;;;;;;;25.36;40.15;102087.09;4973140;28;98916;-75
2021/09/07 08:26:31;;;;;;;;;;;;;;;24.99;41.04;102087.22;4970673;28;99043;-76
2021/09/07 08:28:57;;;;;;;;;;;;;;;25.34;40.55;102083.66;4969945;28;97666;-75
2021/09/07 08:31:23;;;;;;;;;;;;;;;25.24;41.12;102078.09;4968760;28;97112;-74
2021/09/07 08:33:52;;;;;;;;;;;;;;;25.72;40.69;102080.75;4968646;28;98725;-73
2021/09/07 08:36:18;;;;;;;;;;;;;;;25.38;40.64;102080.59;4965714;28;98916;-73
2021/09/07 08:38:44;;;;;;;;;;;;;;;24.82;41.12;102087.56;4969296;28;97470;-73
2021/09/07 08:41:14;;;;;;;;;;;;;;;24.70;42.04;102084.91;4971151;28;97432;-73
2021/09/07 08:43:41;;;;;;;;;;;;;;;25.00;41.47;102086.22;4971516;28;98931;-73
2021/09/07 08:46:08;;;;;;;;;;;;;;;25.02;41.61;102086.09;4970387;28;99303;-73
2021/09/07 08:48:34;;;;;;;;;;;;;;;25.22;41.35;102080.03;4964344;28;96997;-74
2021/09/07 08:51:02;;;;;;;;;;;;;;;25.26;41.27;102080.69;4967910;28;97425;-74
2021/09/07 08:53:28;;;;;;;;;;;;;;;25.15;41.51;102091.44;4963313;28;98359;-73
2021/09/07 08:55:55;;;;;;;;;;;;;;;24.68;42.19;102085.00;4970263;28;98888;-73
2021/09/07 08:58:21;;;;;;;;;;;;;;;24.97;41.77;102086.44;4970559;28;98478;-75
2021/09/07 09:00:49;;;;;;;;;;;;;;;24.91;41.95;102094.16;4969100;28;99197;-73
2021/09/07 09:03:15;;;;;;;;;;;;;;;25.64;40.60;102085.88;4969757;28;100244;-73
2021/09/07 09:05:42;;;;;;;;;;;;;;;25.97;40.30;102087.78;4970227;28;99037;-74
2021/09/07 09:08:12;;;;;;;;;;;;;;;25.92;39.51;102090.88;4970882;28;96904;-76
2021/09/07 09:10:39;;;;;;;;;;;;;;;25.26;40.06;102094.22;4964633;28;99885;-73
2021/09/07 09:13:06;;;;;;;;;;;;;;;25.21;40.46;102088.25;4972794;28;98963;-72
2021/09/07 09:15:33;;;;;;;;;;;;;;;25.27;40.52;102098.66;4967363;28;97991;-73
2021/09/07 09:18:04;;;;;;;;;;;;;;;25.51;40.39;102095.91;4974896;28;97291;-73
2021/09/07 09:20:30;;;;;;;;;;;;;;;25.68;40.11;102090.94;4967454;28;99225;-74
2021/09/07 09:22:57;;;;;;;;;;;;;;;24.59;41.66;102097.38;4968957;28;99251;-74
2021/09/07 09:25:26;;;;;;;;;;;;;;;25.41;40.05;102095.72;4970440;28;99143;-72
2021/09/07 09:28:07;;;;;;;;;;;;;;;25.43;40.14;102101.91;4973909;28;97115;-72
2021/09/07 09:30:36;;;;;;;;;;;;;;;26.01;38.81;102105.50;4969685;28;98487;-74
2021/09/07 09:33:02;;;;;;;;;;;;;;;25.04;40.88;102107.63;4969742;28;98946;-73
2021/09/07 09:35:28;;;;;;;;;;;;;;;25.15;40.98;102096.84;4971247;28;98919;-73
2021/09/07 09:37:55;;;;;;;;;;;;;;;25.23;40.61;102103.41;4972151;28;97685;-75
2021/09/07 09:40:21;;;;;;;;;;;;;;;25.39;40.43;102103.13;4972174;28;97178;-74
2021/09/07 09:42:49;;;;;;;;;;;;;;;26.18;38.59;102102.34;4969745;28;99411;-74
2021/09/07 09:45:15;;;;;;;;;;;;;;;25.82;39.05;102097.09;4971381;28;98771;-73
2021/09/07 09:47:43;;;;;;;;;;;;;;;24.78;40.65;102098.72;4970387;28;97359;-73
2021/09/07 09:50:11;;;;;;;;;;;;;;;24.84;39.72;102099.13;4966618;28;99191;-74
2021/09/07 09:52:38;;;;;;;;;;;;;;;25.46;38.74;102098.09;4967144;28;98968;-73
2021/09/07 09:55:05;;;;;;;;;;;;;;;25.81;37.93;102098.94;4967255;28;98876;-73
2021/09/07 09:57:32;;;;;;;;;;;;;;;25.28;39.28;102089.53;4970291;28;98969;-73
2021/09/07 10:00:02;;;;;;;;;;;;;;;25.28;39.62;102093.09;4970117;28;97351;-73
2021/09/07 10:02:30;;;;;;;;;;;;;;;24.85;41.09;102091.88;4967061;28;99335;-73
2021/09/07 10:04:56;;;;;;;;;;;;;;;25.39;40.21;102089.59;4971013;28;98969;-73
2021/09/07 10:07:23;;;;;;;;;;;;;;;24.84;41.03;102100.97;4965477;28;97820;-72
2021/09/07 10:09:49;;;;;;;;;;;;;;;25.17;40.31;102086.78;4970594;28;98165;-74
2021/09/07 10:12:20;;;;;;;;;;;;;;;26.35;38.03;102085.59;4962947;28;100484;-73
2021/09/07 10:14:51;;;;;;;;;;;;;;;26.81;36.62;102080.00;4968682;28;99350;-73
2021/09/07 10:17:25;;;;;;;;;;;;;;;26.96;36.38;102077.88;4970167;28;97339;-75
2021/09/07 10:19:59;;;;;;;;;;;;;;;26.58;36.72;102083.75;4968412;28;97224;-73
2021/09/07 10:25:39;;;;;;;;;;;;;;;26.41;37.02;102076.09;4961732;28;99528;-73
2021/09/07 10:28:05;;;;;;;;;;;;;;;26.49;37.04;102070.94;4967112;28;99049;-74
2021/09/07 10:30:50;;;;;;;;;;;;;;;26.61;36.61;102074.47;4968006;28;97002;-73
2021/09/07 10:33:37;;;;;;;;;;;;;;;26.38;36.85;102079.94;4966308;28;98957;-73
2021/09/07 10:36:04;;;;;;;;;;;;;;;26.18;37.05;102080.66;4972292;28;98923;-74
2021/09/07 10:38:36;;;;;;;;;;;;;;;25.35;38.80;102071.84;4969814;28;97394;-73
2021/09/07 10:41:02;;;;;;;;;;;;;;;25.70;38.12;102070.03;4971974;28;97308;-74
2021/09/07 10:43:43;;;;;;;;;;;;;;;26.04;37.46;102073.63;4971887;28;99315;-74
2021/09/07 10:46:09;;;;;;;;;;;;;;;26.80;36.47;102070.13;4967392;28;98914;-74
2021/09/07 10:48:37;;;;;;;;;;;;;;;26.19;36.52;102071.53;4968231;28;96995;-74
2021/09/07 10:51:04;;;;;;;;;;;;;;;25.84;38.11;102068.94;4970180;28;97280;-72
2021/09/07 10:53:31;;;;;;;;;;;;;;;25.87;38.15;102070.53;4970668;28;98435;-73
2021/09/07 10:56:12;;;;;;;;;;;;;;;25.90;38.34;102065.75;4971047;28;98171;-73
2021/09/07 10:58:38;;;;;;;;;;;;;;;26.08;38.46;102069.69;4966670;28;97244;-73
2021/09/07 11:01:24;;;;;;;;;;;;;;;26.63;36.43;102067.09;4967574;28;97304;-73
2021/09/07 11:04:17;;;;;;;;;;;;;;;26.53;36.43;102072.41;4964971;28;99272;-75
2021/09/07 11:06:44;;;;;;;;;;;;;;;27.06;35.41;102072.53;4969345;28;99443;-74
2021/09/07 11:09:28;;;;;;;;;;;;;;;27.46;35.02;102068.16;4969478;28;98140;-73
2021/09/07 11:12:15;;;;;;;;;;;;;;;27.59;34.34;102070.72;4969742;28;97361;-73
2021/09/07 11:14:59;;;;;;;;;;;;;;;27.24;34.82;102071.84;4967543;28;97835;-74
2021/09/07 11:17:26;;;;;;;;;;;;;;;27.27;34.70;102066.16;4970952;28;99128;-74
2021/09/07 11:19:59;;;;;;;;;;;;;;;27.26;34.75;102064.44;4967745;28;97403;-74
2021/09/07 11:22:29;;;;;;;;;;;;;;;27.84;33.91;102064.00;4973907;28;97293;-74
2021/09/07 11:25:03;;;;;;;;;;;;;;;27.60;34.20;102061.56;4968858;28;98250;-74
2021/09/07 11:27:47;;;;;;;;;;;;;;;27.92;33.93;102061.47;4968078;28;99970;-74
2021/09/07 11:30:27;;;;;;;;;;;;;;;27.63;34.09;102066.75;4963793;28;97778;-75
2021/09/07 11:32:57;;;;;;;;;;;;;;;27.71;33.77;102058.78;4969077;28;98602;-74
2021/09/07 11:35:25;;;;;;;;;;;;;;;28.17;32.54;102066.47;4967486;28;99192;-74
2021/09/07 11:37:56;;;;;;;;;;;;;;;27.97;33.54;102068.22;4970293;28;98953;-74
2021/09/07 11:40:22;;;;;;;;;;;;;;;27.81;33.71;102072.44;4970899;28;97131;-74
2021/09/07 11:42:48;;;;;;;;;;;;;;;27.63;34.40;102073.03;4967327;28;97446;-76
2021/09/07 11:45:25;;;;;;;;;;;;;;;27.12;35.61;102062.03;4969783;28;101214;-73
2021/09/07 11:47:51;;;;;;;;;;;;;;;27.57;34.86;102067.28;4968304;28;97875;-73
2021/09/07 11:50:18;;;;;;;;;;;;;;;26.76;36.16;102062.38;4964267;28;97098;-72
2021/09/07 11:52:47;;;;;;;;;;;;;;;27.18;35.04;102066.06;4969718;28;97281;-72
2021/09/07 11:55:28;;;;;;;;;;;;;;;27.38;34.35;102071.53;4969112;28;99392;-74
2021/09/07 11:57:54;;;;;;;;;;;;;;;27.24;34.56;102068.28;4957102;28;98781;-73
2021/09/07 12:00:25;;;;;;;;;;;;;;;27.32;33.72;102061.19;4971486;28;96782;-78
2021/09/07 12:03:06;;;;;;;;;;;;;;;27.10;34.65;102074.88;4968105;28;97405;-75
2021/09/07 12:05:47;;;;;;;;;;;;;;;27.59;33.85;102073.41;4969593;28;99592;-75
2021/09/07 12:08:15;;;;;;;;;;;;;;;27.62;33.92;102065.03;4970888;28;98781;-74
2021/09/07 12:10:50;;;;;;;;;;;;;;;28.16;33.51;102066.63;4964080;28;98931;-74
2021/09/07 12:13:20;;;;;;;;;;;;;;;28.45;32.97;102065.72;4970353;28;98469;-76
2021/09/07 12:15:46;;;;;;;;;;;;;;;28.56;32.78;102059.31;4971046;28;99066;-74
2021/09/07 12:18:24;;;;;;;;;;;;;;;28.45;33.45;102065.72;4970116;28;98868;-74
2021/09/07 12:20:51;;;;;;;;;;;;;;;28.28;33.48;102057.38;4969159;28;97017;-73
2021/09/07 12:23:31;;;;;;;;;;;;;;;28.47;32.99;102054.72;4972857;28;96914;-74
2021/09/07 12:25:57;;;;;;;;;;;;;;;28.22;33.33;102052.50;4968377;28;99269;-73
2021/09/07 12:28:24;;;;;;;;;;;;;;;28.31;33.60;102046.22;4971286;28;98171;-73
2021/09/07 12:30:50;;;;;;;;;;;;;;;27.89;33.96;102050.88;4968673;28;96831;-73
2021/09/07 12:33:18;;;;;;;;;;;;;;;28.02;33.82;102054.25;4969710;28;97046;-73
2021/09/07 12:35:52;;;;;;;;;;;;;;;27.17;36.09;102051.66;4969266;28;98375;-72
2021/09/07 12:38:19;;;;;;;;;;;;;;;27.08;36.52;102049.72;4971607;28;99308;-73
2021/09/07 12:40:48;;;;;;;;;;;;;;;26.57;37.69;102044.06;4968003;28;96889;-73